createdAt,value
2018-04-28T00:00:50.316Z,68.76
2018-04-28T00:01:50.326Z,68.67
2018-04-28T00:02:51.305Z,68.86
2018-04-28T00:03:50.321Z,68.67
2018-04-28T00:04:50.328Z,68.76
2018-04-28T00:05:50.326Z,68.86
2018-04-28T00:06:50.333Z,69.15
2018-04-28T00:07:50.345Z,68.86
2018-04-28T00:08:50.336Z,69.82
2018-04-28T00:09:50.335Z,69.24
2018-04-28T00:10:50.339Z,69.72
2018-04-28T00:11:50.345Z,68.96
2018-04-28T00:12:50.346Z,69.15
2018-04-28T00:13:50.351Z,69.05
2018-04-28T00:14:50.354Z,68.82
2018-04-28T00:15:50.356Z,68.76
2018-04-28T00:16:50.368Z,68.67
2018-04-28T00:17:50.359Z,69.05
2018-04-28T00:18:50.358Z,69.34
2018-04-28T00:19:50.368Z,69.15
2018-04-28T00:20:50.371Z,69.15
2018-04-28T00:21:50.370Z,68.86
2018-04-28T00:22:51.310Z,69.53
2018-04-28T00:23:50.377Z,68.86
2018-04-28T00:24:50.382Z,68.86
2018-04-28T00:25:50.377Z,68.96
2018-04-28T00:26:50.380Z,68.86
2018-04-28T00:27:50.391Z,69.15
2018-04-28T00:28:50.385Z,68.86
2018-04-28T00:29:50.395Z,68.86
2018-04-28T00:30:50.394Z,68.86
2018-04-28T00:31:50.400Z,69.15
2018-04-28T00:32:50.401Z,68.96
2018-04-28T00:33:50.401Z,69.05
2018-04-28T00:34:50.403Z,69.34
2018-04-28T00:35:50.411Z,69.15
2018-04-28T00:36:50.411Z,68.86
2018-04-28T00:37:50.408Z,69.05
2018-04-28T00:39:50.423Z,69.15
2018-04-28T00:40:50.419Z,68.96
2018-04-28T00:41:50.427Z,68.67
2018-04-28T00:42:50.431Z,68.86
2018-04-28T00:43:50.431Z,69.15
2018-04-28T00:44:50.436Z,69.15
2018-04-28T00:45:50.434Z,68.67
2018-04-28T00:46:50.440Z,69.34
2018-04-28T00:47:50.442Z,69.24
2018-04-28T00:48:57.317Z,68.86
2018-04-28T00:49:52.244Z,68.67
2018-04-28T00:51:50.459Z,68.57
2018-04-28T00:52:50.461Z,68.76
2018-04-28T00:53:50.461Z,68.86
2018-04-28T00:54:50.473Z,68.48
2018-04-28T00:55:50.458Z,68.29
2018-04-28T00:56:50.470Z,68.29
2018-04-28T00:57:50.463Z,68.19
2018-04-28T00:58:50.472Z,68.19
2018-04-28T00:59:50.472Z,68.10
2018-04-28T01:00:50.478Z,68.38
2018-04-28T01:01:50.478Z,68.86
2018-04-28T01:02:50.489Z,68.76
2018-04-28T01:03:50.490Z,68.19
2018-04-28T01:04:50.501Z,68.48
2018-04-28T01:05:50.495Z,68.67
2018-04-28T01:06:50.515Z,68.76
2018-04-28T01:07:50.501Z,69.34
2018-04-28T01:08:50.497Z,68.76
2018-04-28T01:09:50.501Z,68.57
2018-04-28T01:10:50.501Z,68.19
2018-04-28T01:11:50.510Z,68.29
2018-04-28T01:12:50.506Z,68.00
2018-04-28T01:13:50.516Z,68.29
2018-04-28T01:14:50.512Z,68.86
2018-04-28T01:15:50.520Z,68.48
2018-04-28T01:16:50.521Z,68.38
2018-04-28T01:17:50.525Z,68.29
2018-04-28T01:18:50.528Z,67.52
2018-04-28T01:19:50.523Z,67.62
2018-04-28T01:20:50.536Z,67.52
2018-04-28T01:21:50.536Z,67.62
2018-04-28T01:22:50.536Z,67.62
2018-04-28T01:23:50.537Z,67.43
2018-04-28T01:24:50.544Z,67.52
2018-04-28T01:25:50.543Z,67.14
2018-04-28T01:26:50.544Z,66.95
2018-04-28T01:27:50.553Z,67.43
2018-04-28T01:28:50.561Z,66.56
2018-04-28T01:29:50.556Z,66.85
2018-04-28T01:30:50.555Z,66.85
2018-04-28T01:31:50.565Z,66.95
2018-04-28T01:32:50.565Z,66.95
2018-04-28T01:33:50.564Z,66.56
2018-04-28T01:34:50.569Z,66.56
2018-04-28T01:35:50.570Z,66.56
2018-04-28T01:36:50.579Z,66.89
2018-04-28T01:37:50.576Z,67.18
2018-04-28T01:38:50.584Z,66.76
2018-04-28T01:39:50.579Z,66.66
2018-04-28T01:40:50.591Z,66.76
2018-04-28T01:41:50.585Z,66.89
2018-04-28T01:42:50.590Z,66.76
2018-04-28T01:43:50.603Z,66.89
2018-04-28T01:44:50.593Z,67.08
2018-04-28T01:45:50.599Z,66.76
2018-04-28T01:46:50.600Z,66.76
2018-04-28T01:47:50.635Z,67.05
2018-04-28T01:48:50.607Z,66.56
2018-04-28T01:49:50.611Z,66.85
2018-04-28T01:50:50.618Z,67.08
2018-04-28T01:51:50.612Z,67.24
2018-04-28T01:52:50.631Z,67.62
2018-04-28T01:53:50.621Z,67.36
2018-04-28T01:54:50.646Z,67.14
2018-04-28T01:55:50.625Z,67.24
2018-04-28T01:56:50.635Z,66.95
2018-04-28T01:57:50.635Z,66.79
2018-04-28T01:58:50.640Z,66.85
2018-04-28T01:59:50.639Z,67.18
2018-04-28T02:00:50.647Z,66.99
2018-04-28T02:01:50.646Z,66.99
2018-04-28T02:02:50.642Z,66.89
2018-04-28T02:03:50.654Z,67.08
2018-04-28T02:04:50.654Z,66.79
2018-04-28T02:05:50.653Z,66.89
2018-04-28T02:06:50.662Z,66.99
2018-04-28T02:07:50.664Z,66.89
2018-04-28T02:08:50.670Z,66.60
2018-04-28T02:09:50.665Z,67.08
2018-04-28T02:10:50.674Z,66.85
2018-04-28T02:11:50.671Z,67.75
2018-04-28T02:12:50.684Z,66.99
2018-04-28T02:13:50.675Z,67.71
2018-04-28T02:14:50.685Z,67.43
2018-04-28T02:15:50.687Z,67.62
2018-04-28T02:16:50.690Z,67.46
2018-04-28T02:17:50.707Z,68.29
2018-04-28T02:18:50.705Z,68.00
2018-04-28T02:19:50.719Z,68.29
2018-04-28T02:20:50.704Z,68.10
2018-04-28T02:21:50.698Z,68.10
2018-04-28T02:22:50.707Z,68.29
2018-04-28T02:23:50.703Z,68.48
2018-04-28T02:24:50.713Z,68.67
2018-04-28T02:25:50.709Z,69.05
2018-04-28T02:26:50.716Z,69.34
2018-04-28T02:27:50.719Z,68.86
2018-04-28T02:28:50.739Z,68.76
2018-04-28T02:29:50.723Z,68.96
2018-04-28T02:30:50.743Z,69.82
2018-04-28T02:31:50.735Z,69.34
2018-04-28T02:32:50.731Z,70.10
2018-04-28T02:33:50.729Z,70.01
2018-04-28T02:34:50.739Z,69.91
2018-04-28T02:35:50.744Z,69.91
2018-04-28T02:36:50.740Z,69.72
2018-04-28T02:37:50.751Z,69.53
2018-04-28T02:38:50.749Z,70.29
2018-04-28T02:39:50.751Z,70.10
2018-04-28T02:40:50.756Z,70.20
2018-04-28T02:41:50.763Z,70.29
2018-04-28T02:42:50.766Z,70.29
2018-04-28T02:43:50.758Z,70.39
2018-04-28T02:44:50.763Z,70.20
2018-04-28T02:45:50.775Z,70.20
2018-04-28T02:46:50.774Z,70.20
2018-04-28T02:47:50.778Z,70.67
2018-04-28T02:48:50.778Z,70.67
2018-04-28T02:49:50.789Z,71.06
2018-04-28T02:50:50.780Z,70.58
2018-04-28T02:51:50.783Z,71.06
2018-04-28T02:52:50.796Z,70.87
2018-04-28T02:53:50.785Z,70.87
2018-04-28T02:54:50.792Z,71.15
2018-04-28T02:55:50.810Z,71.72
2018-04-28T02:56:50.806Z,71.63
2018-04-28T02:57:50.796Z,70.96
2018-04-28T02:58:50.797Z,70.96
2018-04-28T02:59:50.810Z,71.72
2018-04-28T03:00:50.813Z,71.72
2018-04-28T03:01:50.811Z,72.01
2018-04-28T03:02:50.819Z,72.30
2018-04-28T03:03:50.821Z,72.30
2018-04-28T03:04:50.819Z,72.20
2018-04-28T03:05:50.829Z,72.58
2018-04-28T03:06:50.820Z,72.49
2018-04-28T03:07:50.831Z,72.58
2018-04-28T03:08:50.830Z,72.36
2018-04-28T03:09:50.836Z,72.45
2018-04-28T03:10:50.831Z,72.30
2018-04-28T03:11:50.841Z,72.49
2018-04-28T03:12:50.842Z,72.55
2018-04-28T03:13:50.853Z,72.93
2018-04-28T03:14:50.847Z,72.39
2018-04-28T03:15:50.852Z,72.83
2018-04-28T03:16:50.855Z,73.22
2018-04-28T03:17:50.848Z,73.03
2018-04-28T03:18:50.858Z,72.93
2018-04-28T03:19:50.865Z,73.41
2018-04-28T03:20:50.868Z,73.03
2018-04-28T03:21:50.870Z,72.83
2018-04-28T03:22:50.863Z,72.93
2018-04-28T03:23:50.870Z,73.03
2018-04-28T03:24:50.880Z,73.50
2018-04-28T03:25:50.870Z,73.32
2018-04-28T03:26:50.877Z,73.22
2018-04-28T03:27:51.855Z,73.03
2018-04-28T03:28:50.883Z,73.22
2018-04-28T03:29:50.885Z,74.08
2018-04-28T03:30:50.883Z,73.79
2018-04-28T03:31:50.896Z,73.41
2018-04-28T03:32:50.890Z,73.69
2018-04-28T03:33:50.900Z,73.88
2018-04-28T03:34:50.902Z,73.98
2018-04-28T03:35:50.895Z,73.41
2018-04-28T03:36:50.901Z,73.98
2018-04-28T03:37:50.902Z,73.41
2018-04-28T03:38:50.907Z,73.41
2018-04-28T03:39:50.915Z,73.32
2018-04-28T03:40:50.909Z,73.41
2018-04-28T03:41:50.920Z,73.41
2018-04-28T03:42:50.919Z,73.50
2018-04-28T03:43:50.925Z,73.41
2018-04-28T03:44:50.925Z,73.50
2018-04-28T03:45:50.924Z,73.50
2018-04-28T03:46:50.933Z,73.41
2018-04-28T03:47:50.927Z,73.22
2018-04-28T03:48:50.938Z,73.22
2018-04-28T03:49:50.933Z,73.41
2018-04-28T03:50:50.936Z,73.50
2018-04-28T03:51:50.948Z,73.41
2018-04-28T03:52:50.951Z,73.41
2018-04-28T03:53:50.956Z,73.41
2018-04-28T03:54:50.947Z,73.60
2018-04-28T03:55:50.948Z,73.41
2018-04-28T03:56:50.963Z,73.41
2018-04-28T03:57:50.953Z,73.50
2018-04-28T03:58:50.965Z,73.50
2018-04-28T03:59:50.958Z,73.22
2018-04-28T04:00:50.963Z,73.32
2018-04-28T04:01:50.973Z,73.12
2018-04-28T04:02:50.972Z,73.60
2018-04-28T04:03:50.972Z,73.32
2018-04-28T04:04:50.977Z,73.32
2018-04-28T04:05:50.989Z,72.83
2018-04-28T04:06:50.995Z,72.68
2018-04-28T04:07:50.981Z,72.39
2018-04-28T04:08:50.986Z,72.97
2018-04-28T04:09:50.986Z,72.87
2018-04-28T04:10:50.995Z,72.58
2018-04-28T04:11:50.994Z,72.87
2018-04-28T04:12:51.004Z,72.68
2018-04-28T04:13:51.020Z,72.87
2018-04-28T04:14:51.017Z,72.58
2018-04-28T04:15:51.001Z,72.39
2018-04-28T04:16:51.026Z,72.49
2018-04-28T04:17:51.012Z,72.39
2018-04-28T04:18:51.195Z,72.20
2018-04-28T04:19:51.043Z,72.30
2018-04-28T04:20:51.063Z,72.30
2018-04-28T04:21:51.018Z,72.58
2018-04-28T04:22:51.029Z,72.39
2018-04-28T04:23:51.024Z,72.58
2018-04-28T04:24:51.032Z,72.30
2018-04-28T04:25:51.024Z,72.30
2018-04-28T04:26:51.034Z,72.11
2018-04-28T04:27:51.038Z,72.30
2018-04-28T04:28:51.040Z,72.01
2018-04-28T04:29:51.057Z,71.82
2018-04-28T04:30:51.041Z,71.92
2018-04-28T04:31:51.087Z,72.11
2018-04-28T04:32:51.051Z,72.05
2018-04-28T04:33:51.052Z,71.72
2018-04-28T04:34:51.058Z,71.67
2018-04-28T04:35:51.064Z,71.38
2018-04-28T04:36:51.076Z,71.86
2018-04-28T04:37:51.084Z,71.00
2018-04-28T04:38:51.088Z,70.71
2018-04-28T04:39:51.087Z,70.61
2018-04-28T04:40:51.085Z,70.52
2018-04-28T04:41:51.101Z,70.14
2018-04-28T04:42:51.153Z,70.04
2018-04-28T04:43:51.087Z,70.42
2018-04-28T04:44:51.124Z,70.33
2018-04-28T04:45:51.096Z,69.66
2018-04-28T04:46:51.094Z,69.66
2018-04-28T04:47:51.088Z,70.04
2018-04-28T04:48:51.196Z,70.27
2018-04-28T04:49:51.109Z,69.98
2018-04-28T04:50:51.101Z,69.98
2018-04-28T04:51:51.102Z,70.17
2018-04-28T04:52:51.111Z,69.60
2018-04-28T04:53:51.110Z,69.12
2018-04-28T04:54:51.122Z,68.84
2018-04-28T04:55:51.116Z,69.21
2018-04-28T04:56:51.130Z,68.93
2018-04-28T04:57:51.121Z,68.64
2018-04-28T04:58:51.126Z,68.64
2018-04-28T04:59:51.125Z,68.35
2018-04-28T05:00:51.132Z,68.16
2018-04-28T05:01:51.132Z,68.26
2018-04-28T05:02:51.143Z,67.97
2018-04-28T05:03:51.153Z,67.97
2018-04-28T05:04:51.143Z,68.35
2018-04-28T05:05:51.156Z,68.20
2018-04-28T05:06:51.170Z,68.45
2018-04-28T05:07:51.154Z,68.16
2018-04-28T05:08:51.156Z,68.45
2018-04-28T05:09:51.160Z,68.20
2018-04-28T05:10:51.166Z,68.39
2018-04-28T05:11:51.172Z,67.53
2018-04-28T05:12:51.172Z,67.63
2018-04-28T05:13:51.172Z,67.63
2018-04-28T05:14:51.174Z,67.34
2018-04-28T05:15:51.180Z,67.24
2018-04-28T05:16:51.188Z,67.24
2018-04-28T05:17:51.182Z,66.99
2018-04-28T05:18:51.189Z,66.86
2018-04-28T05:19:51.188Z,66.57
2018-04-28T05:20:51.195Z,66.96
2018-04-28T05:21:51.204Z,66.70
2018-04-28T05:22:51.199Z,66.47
2018-04-28T05:23:51.217Z,66.51
2018-04-28T05:24:51.214Z,66.13
2018-04-28T05:25:51.212Z,66.13
2018-04-28T05:26:51.218Z,66.03
2018-04-28T05:27:51.228Z,65.84
2018-04-28T05:28:51.239Z,65.55
2018-04-28T05:29:51.234Z,64.88
2018-04-28T05:30:51.236Z,64.92
2018-04-28T05:31:51.239Z,63.96
2018-04-28T05:32:51.235Z,64.15
2018-04-28T05:33:51.246Z,63.86
2018-04-28T05:34:51.246Z,63.32
2018-04-28T05:35:51.275Z,63.13
2018-04-28T05:36:51.254Z,63.03
2018-04-28T05:37:51.257Z,62.55
2018-04-28T05:38:51.288Z,61.88
2018-04-28T05:39:51.268Z,62.01
2018-04-28T05:40:51.271Z,62.01
2018-04-28T05:41:51.283Z,61.43
2018-04-28T05:42:51.279Z,60.96
2018-04-28T05:43:51.279Z,61.08
2018-04-28T05:44:51.287Z,60.22
2018-04-28T05:45:51.288Z,58.42
2018-04-28T05:46:51.298Z,57.52
2018-04-28T05:47:51.297Z,56.56
2018-04-28T05:48:51.307Z,55.15
2018-04-28T05:49:51.304Z,55.24
2018-04-28T05:50:51.316Z,54.67
2018-04-28T05:51:51.317Z,54.74
2018-04-28T05:52:51.329Z,54.74
2018-04-28T05:53:51.323Z,54.96
2018-04-28T05:54:51.334Z,54.02
2018-04-28T05:55:51.337Z,54.09
2018-04-28T05:56:51.347Z,54.16
2018-04-28T05:57:51.432Z,54.38
2018-04-28T05:58:51.359Z,54.09
2018-04-28T05:59:51.371Z,53.45
2018-04-28T06:00:51.372Z,52.68
2018-04-28T06:01:51.382Z,52.10
2018-04-28T06:02:51.374Z,51.93
2018-04-28T06:03:51.397Z,51.81
2018-04-28T06:04:51.406Z,51.64
2018-04-28T06:05:51.407Z,50.99
2018-04-28T06:06:51.397Z,50.13
2018-04-28T06:07:51.427Z,50.13
2018-04-28T06:08:51.412Z,50.23
2018-04-28T06:09:51.475Z,49.94
2018-04-28T06:10:51.433Z,49.94
2018-04-28T06:11:51.439Z,50.32
2018-04-28T06:12:51.448Z,50.61
2018-04-28T06:13:51.458Z,50.13
2018-04-28T06:14:51.460Z,49.38
2018-04-28T06:15:51.466Z,48.16
2018-04-28T06:16:51.476Z,47.41
2018-04-28T06:17:51.480Z,46.08
2018-04-28T06:18:51.508Z,45.04
2018-04-28T06:19:51.528Z,44.10
2018-04-28T06:20:51.517Z,43.91
2018-04-28T06:21:51.512Z,43.52
2018-04-28T06:22:51.538Z,44.10
2018-04-28T06:23:51.964Z,44.76
2018-04-28T06:25:51.623Z,45.87
2018-04-28T06:26:51.560Z,46.52
2018-04-28T06:30:34.019Z,49.15
2018-04-28T06:31:33.039Z,50.37
2018-04-28T06:33:25.090Z,51.21
2018-04-28T06:34:25.107Z,52.08
2018-04-28T06:36:18.048Z,52.53
2018-04-28T06:37:18.043Z,53.49
2018-04-28T06:39:10.990Z,53.58
2018-04-28T06:40:11.000Z,53.23
2018-04-28T06:42:03.948Z,51.33
2018-04-28T06:43:03.951Z,49.58
2018-04-28T06:45:00.931Z,45.79
2018-04-28T06:46:00.901Z,44.46
2018-04-28T06:47:00.912Z,43.91
2018-04-28T06:48:00.919Z,42.99
2018-04-28T06:49:00.930Z,41.54
2018-04-28T06:50:00.937Z,41.63
2018-04-28T06:51:00.990Z,41.15
2018-04-28T06:52:00.955Z,41.44
2018-04-28T06:53:01.082Z,41.61
2018-04-28T06:54:00.974Z,42.46
2018-04-28T06:55:00.985Z,43.21
2018-04-28T06:56:00.995Z,42.97
2018-04-28T06:57:01.003Z,41.61
2018-04-28T06:58:01.010Z,41.54
2018-04-28T06:59:01.022Z,40.50
2018-04-28T07:00:01.032Z,39.94
2018-04-28T07:01:01.041Z,39.43
2018-04-28T07:02:01.047Z,39.45
2018-04-28T07:03:01.066Z,39.47
2018-04-28T07:04:01.070Z,37.94
2018-04-28T07:05:01.088Z,37.30
2018-04-28T07:06:54.038Z,36.16
2018-04-28T07:07:54.025Z,36.16
2018-04-28T07:09:46.994Z,34.91
2018-04-28T07:10:47.018Z,34.81
2018-04-28T07:12:39.955Z,34.62
2018-04-28T07:13:39.931Z,34.51
2018-04-28T07:15:32.876Z,35.48
2018-04-28T07:16:32.894Z,35.30
2018-04-28T07:18:25.859Z,34.43
2018-04-28T07:19:25.846Z,34.44
2018-04-28T07:21:18.838Z,33.47
2018-04-28T07:22:18.800Z,33.47
2018-04-28T07:24:11.889Z,33.67
2018-04-28T07:25:11.767Z,33.57
2018-04-28T07:27:04.806Z,33.38
2018-04-28T07:28:04.826Z,33.47
2018-04-28T07:29:57.852Z,34.23
2018-04-28T07:30:57.788Z,34.33
2018-04-28T07:32:50.786Z,33.57
2018-04-28T07:33:50.733Z,33.18
2018-04-28T07:35:43.761Z,32.41
2018-04-28T07:36:43.701Z,32.52
2018-04-28T07:38:36.655Z,31.95
2018-04-28T07:39:36.644Z,31.10
2018-04-28T07:41:29.635Z,30.33
2018-04-28T07:42:29.613Z,30.04
2018-04-28T07:44:22.570Z,30.88
2018-04-28T07:45:22.576Z,31.08
2018-04-28T07:47:15.626Z,32.12
2018-04-28T07:48:15.526Z,33.17
2018-04-28T07:50:08.484Z,34.78
2018-04-28T07:51:08.481Z,35.15
2018-04-28T07:53:01.479Z,35.81
2018-04-28T07:54:01.501Z,36.49
2018-04-28T07:55:54.388Z,36.40
2018-04-28T07:56:54.394Z,36.96
2018-04-28T07:58:47.378Z,37.62
2018-04-28T07:59:47.359Z,37.82
2018-04-28T08:01:40.844Z,35.56
2018-04-28T08:02:40.817Z,35.56
2018-04-28T08:04:33.860Z,35.56
2018-04-28T08:05:33.779Z,35.46
2018-04-28T08:07:26.729Z,35.54
2018-04-28T08:08:26.734Z,36.88
2018-04-28T08:10:19.717Z,37.71
2018-04-28T08:11:19.698Z,37.88
2018-04-28T08:13:12.641Z,39.86
2018-04-28T08:14:12.658Z,40.53
2018-04-28T08:16:05.651Z,41.57
2018-04-28T08:17:05.620Z,41.38
2018-04-28T08:18:58.613Z,42.23
2018-04-28T08:19:58.606Z,42.71
2018-04-28T08:21:51.642Z,43.94
2018-04-28T08:22:51.616Z,44.04
2018-04-28T08:24:44.564Z,43.65
2018-04-28T08:25:44.580Z,43.82
2018-04-28T08:27:38.129Z,45.27
2018-04-28T08:28:38.068Z,45.25
2018-04-28T08:30:31.001Z,45.99
2018-04-28T08:31:31.997Z,47.05
2018-04-28T08:32:31.007Z,47.22
2018-04-28T08:34:23.950Z,48.18
2018-04-28T08:35:23.909Z,47.99
2018-04-28T08:37:16.959Z,48.85
2018-04-28T08:38:16.814Z,49.02
2018-04-28T08:40:09.805Z,49.43
2018-04-28T08:41:09.779Z,48.95
2018-04-28T08:43:02.721Z,48.76
2018-04-28T08:44:02.733Z,48.08
2018-04-28T08:45:55.733Z,48.28
2018-04-28T08:46:55.719Z,48.85
2018-04-28T08:47:55.735Z,48.85
2018-04-28T08:48:55.735Z,49.15
2018-04-28T08:49:55.744Z,48.38
2018-04-28T08:50:55.756Z,47.92
2018-04-28T08:51:55.757Z,47.82
2018-04-28T08:52:55.771Z,47.34
2018-04-28T08:53:55.776Z,46.31
2018-04-28T08:54:55.778Z,46.31
2018-04-28T08:55:55.791Z,45.92
2018-04-28T08:56:55.796Z,45.65
2018-04-28T08:57:55.802Z,45.48
2018-04-28T08:58:55.813Z,44.90
2018-04-28T08:59:55.817Z,44.23
2018-04-28T09:00:55.832Z,44.35
2018-04-28T09:01:55.839Z,43.96
2018-04-28T09:02:55.846Z,44.25
2018-04-28T09:03:55.861Z,43.38
2018-04-28T09:04:55.859Z,42.83
2018-04-28T09:05:55.874Z,42.83
2018-04-28T09:06:55.876Z,42.15
2018-04-28T09:07:55.886Z,42.35
2018-04-28T09:08:55.900Z,42.63
2018-04-28T09:09:55.907Z,42.44
2018-04-28T09:10:55.920Z,42.83
2018-04-28T09:11:55.937Z,42.44
2018-04-28T09:12:55.944Z,42.66
2018-04-28T09:13:55.950Z,42.18
2018-04-28T09:14:55.964Z,41.60
2018-04-28T09:15:55.973Z,41.98
2018-04-28T09:16:55.971Z,41.96
2018-04-28T09:17:55.989Z,42.73
2018-04-28T09:18:55.996Z,42.00
2018-04-28T09:19:56.003Z,40.13
2018-04-28T09:20:56.018Z,38.02
2018-04-28T09:21:56.033Z,37.28
2018-04-28T09:22:56.064Z,36.99
2018-04-28T09:23:56.049Z,36.70
2018-04-28T09:24:56.099Z,37.63
2018-04-28T09:25:56.076Z,38.50
2018-04-28T09:26:56.074Z,38.41
2018-04-28T09:27:56.097Z,37.36
2018-04-28T09:28:56.106Z,37.55
2018-04-28T09:29:56.114Z,37.38
2018-04-28T09:30:56.133Z,36.90
2018-04-28T09:31:56.141Z,36.51
2018-04-28T09:32:56.157Z,36.02
2018-04-28T09:33:56.167Z,35.94
2018-04-28T09:34:56.226Z,36.14
2018-04-28T09:35:56.187Z,36.43
2018-04-28T09:36:56.209Z,35.66
2018-04-28T09:37:56.355Z,35.56
2018-04-28T09:38:56.229Z,35.66
2018-04-28T09:39:56.344Z,35.36
2018-04-28T09:40:56.260Z,35.46
2018-04-28T09:41:56.267Z,35.64
2018-04-28T09:42:56.286Z,36.12
2018-04-28T09:43:56.296Z,35.93
2018-04-28T09:44:56.333Z,35.56
2018-04-28T09:45:56.329Z,35.75
2018-04-28T09:46:56.339Z,35.64
2018-04-28T09:47:56.356Z,35.83
2018-04-28T09:48:56.363Z,36.00
2018-04-28T09:49:56.382Z,36.30
2018-04-28T09:50:56.390Z,36.68
2018-04-28T09:51:56.406Z,37.17
2018-04-28T09:52:56.423Z,37.07
2018-04-28T09:53:56.440Z,37.17
2018-04-28T09:54:56.448Z,37.24
2018-04-28T09:55:56.485Z,37.24
2018-04-28T09:56:56.474Z,37.63
2018-04-28T09:57:56.504Z,38.00
2018-04-28T09:58:56.575Z,38.66
2018-04-28T09:59:56.512Z,39.43
2018-04-28T10:00:56.528Z,40.19
2018-04-28T10:01:56.537Z,39.99
2018-04-28T10:02:56.551Z,39.39
2018-04-28T10:03:56.568Z,40.26
2018-04-28T10:04:56.575Z,41.50
2018-04-28T10:05:56.599Z,41.50
2018-04-28T10:06:56.617Z,41.50
2018-04-28T10:07:56.619Z,41.69
2018-04-28T10:08:56.626Z,41.60
2018-04-28T10:09:56.634Z,41.50
2018-04-28T10:10:56.655Z,41.50
2018-04-28T10:11:56.671Z,41.69
2018-04-28T10:12:56.676Z,41.88
2018-04-28T10:13:56.679Z,42.27
2018-04-28T10:14:57.628Z,42.36
2018-04-28T10:15:56.708Z,42.73
2018-04-28T10:16:56.719Z,42.52
2018-04-28T10:17:56.738Z,43.00
2018-04-28T10:18:56.740Z,43.29
2018-04-28T10:19:56.745Z,43.77
2018-04-28T10:20:56.754Z,43.77
2018-04-28T10:21:56.765Z,43.00
2018-04-28T10:22:56.772Z,43.37
2018-04-28T10:23:56.783Z,43.87
2018-04-28T10:24:56.801Z,43.94
2018-04-28T10:25:56.805Z,43.94
2018-04-28T10:26:56.817Z,44.13
2018-04-28T10:27:56.828Z,44.04
2018-04-28T10:28:56.828Z,43.75
2018-04-28T10:29:56.848Z,44.13
2018-04-28T10:30:56.872Z,44.13
2018-04-28T10:31:56.860Z,44.13
2018-04-28T10:32:56.869Z,44.52
2018-04-28T10:33:56.878Z,44.32
2018-04-28T10:34:56.894Z,44.32
2018-04-28T10:35:56.901Z,44.06
2018-04-28T10:36:56.906Z,43.87
2018-04-28T10:37:56.920Z,43.38
2018-04-28T10:38:56.936Z,43.60
2018-04-28T10:39:56.936Z,42.93
2018-04-28T10:40:56.950Z,43.10
2018-04-28T10:41:56.951Z,43.46
2018-04-28T10:42:56.974Z,44.23
2018-04-28T10:43:56.969Z,44.69
2018-04-28T10:44:56.987Z,44.98
2018-04-28T10:45:56.988Z,46.23
2018-04-28T10:46:57.015Z,45.65
2018-04-28T10:47:57.012Z,46.33
2018-04-28T10:48:57.044Z,46.04
2018-04-28T10:49:57.056Z,45.94
2018-04-28T10:50:57.058Z,45.75
2018-04-28T10:51:57.054Z,45.94
2018-04-28T10:52:57.099Z,46.23
2018-04-28T10:53:57.149Z,45.94
2018-04-28T10:54:57.077Z,46.52
2018-04-28T10:55:57.078Z,47.00
2018-04-28T10:56:57.106Z,46.62
2018-04-28T10:57:57.099Z,46.25
2018-04-28T10:58:57.108Z,45.68
2018-04-28T10:59:57.119Z,45.21
2018-04-28T11:00:57.127Z,45.41
2018-04-28T11:01:57.130Z,44.37
2018-04-28T11:02:57.142Z,43.89
2018-04-28T11:03:57.147Z,44.08
2018-04-28T11:04:57.159Z,44.25
2018-04-28T11:05:57.163Z,43.89
2018-04-28T11:06:57.179Z,43.77
2018-04-28T11:07:57.184Z,43.77
2018-04-28T11:08:57.199Z,43.70
2018-04-28T11:09:57.210Z,43.41
2018-04-28T11:10:57.208Z,43.41
2018-04-28T11:11:57.219Z,43.70
2018-04-28T11:12:57.231Z,43.89
2018-04-28T11:13:57.238Z,43.98
2018-04-28T11:14:57.254Z,43.79
2018-04-28T11:15:57.257Z,43.79
2018-04-28T11:16:57.265Z,43.79
2018-04-28T11:17:57.268Z,43.77
2018-04-28T11:18:57.289Z,44.15
2018-04-28T11:19:57.390Z,44.25
2018-04-28T11:20:57.310Z,44.52
2018-04-28T11:21:57.311Z,44.71
2018-04-28T11:22:57.321Z,45.48
2018-04-28T11:23:57.329Z,44.81
2018-04-28T11:24:57.338Z,44.90
2018-04-28T11:25:57.340Z,45.00
2018-04-28T11:26:57.368Z,45.10
2018-04-28T11:27:57.371Z,45.20
2018-04-28T11:28:57.374Z,45.20
2018-04-28T11:29:57.384Z,45.68
2018-04-28T11:30:57.390Z,45.77
2018-04-28T11:31:57.397Z,45.65
2018-04-28T11:32:57.430Z,46.14
2018-04-28T11:33:57.418Z,46.62
2018-04-28T11:34:57.428Z,46.62
2018-04-28T11:35:57.447Z,46.14
2018-04-28T11:36:57.437Z,46.62
2018-04-28T11:37:57.448Z,46.62
2018-04-28T11:38:57.465Z,46.62
2018-04-28T11:39:57.468Z,46.62
2018-04-28T11:40:57.483Z,46.52
2018-04-28T11:41:57.489Z,46.04
2018-04-28T11:42:57.540Z,46.15
2018-04-28T11:43:57.502Z,46.15
2018-04-28T11:44:57.512Z,46.25
2018-04-28T11:45:57.512Z,45.87
2018-04-28T11:46:57.531Z,44.83
2018-04-28T11:47:57.531Z,44.83
2018-04-28T11:48:57.560Z,44.35
2018-04-28T11:49:57.549Z,44.15
2018-04-28T11:50:57.580Z,44.06
2018-04-28T11:51:57.564Z,44.06
2018-04-28T11:52:57.585Z,44.45
2018-04-28T11:53:57.591Z,44.08
2018-04-28T11:54:57.603Z,44.46
2018-04-28T11:55:57.632Z,44.76
2018-04-28T11:56:57.615Z,44.08
2018-04-28T11:57:57.627Z,43.79
2018-04-28T11:58:57.645Z,43.41
2018-04-28T11:59:57.643Z,44.25
2018-04-28T12:00:57.646Z,43.96
2018-04-28T12:01:57.678Z,43.77
2018-04-28T12:02:57.665Z,44.06
2018-04-28T12:03:57.679Z,44.15
2018-04-28T12:04:57.698Z,43.96
2018-04-28T12:05:57.692Z,44.23
2018-04-28T12:06:57.707Z,44.23
2018-04-28T12:07:57.707Z,44.90
2018-04-28T12:08:57.723Z,44.79
2018-04-28T12:09:57.737Z,44.79
2018-04-28T12:10:57.747Z,45.27
2018-04-28T12:11:57.789Z,45.84
2018-04-28T12:12:57.758Z,45.84
2018-04-28T12:13:57.767Z,46.23
2018-04-28T12:14:57.771Z,45.84
2018-04-28T12:15:57.808Z,45.84
2018-04-28T12:16:57.798Z,46.14
2018-04-28T12:17:57.817Z,46.23
2018-04-28T12:18:57.804Z,46.04
2018-04-28T12:19:57.812Z,46.04
2018-04-28T12:20:57.865Z,46.23
2018-04-28T12:21:57.827Z,45.56
2018-04-28T12:22:57.838Z,46.42
2018-04-28T12:23:57.850Z,46.42
2018-04-28T12:24:57.854Z,46.23
2018-04-28T12:25:57.862Z,45.84
2018-04-28T12:26:57.880Z,45.94
2018-04-28T12:27:57.873Z,46.33
2018-04-28T12:28:57.893Z,46.04
2018-04-28T12:29:57.978Z,46.04
2018-04-28T12:30:57.902Z,46.25
2018-04-28T12:31:57.916Z,45.10
2018-04-28T12:32:57.915Z,45.07
2018-04-28T12:33:57.931Z,45.65
2018-04-28T12:34:57.932Z,45.29
2018-04-28T12:35:58.025Z,44.81
2018-04-28T12:36:57.951Z,45.29
2018-04-28T12:37:57.961Z,45.68
2018-04-28T12:38:57.966Z,45.68
2018-04-28T12:39:57.971Z,45.68
2018-04-28T12:40:57.983Z,45.68
2018-04-28T12:41:57.989Z,46.45
2018-04-28T12:42:57.997Z,46.15
2018-04-28T12:43:58.011Z,47.31
2018-04-28T12:44:58.013Z,47.70
2018-04-28T12:45:58.021Z,47.39
2018-04-28T12:46:58.038Z,47.00
2018-04-28T12:47:58.046Z,47.19
2018-04-28T12:48:58.050Z,47.39
2018-04-28T12:49:58.061Z,47.29
2018-04-28T12:50:58.364Z,46.71
2018-04-28T12:51:58.764Z,46.62
2018-04-28T12:52:58.171Z,46.62
2018-04-28T12:53:58.101Z,46.98
2018-04-28T12:54:58.361Z,47.27
2018-04-28T12:55:58.117Z,47.36
2018-04-28T12:56:58.139Z,47.77
2018-04-28T12:57:58.122Z,47.49
2018-04-28T12:58:58.134Z,47.58
2018-04-28T12:59:58.154Z,46.73
2018-04-28T13:00:58.143Z,46.64
2018-04-28T13:01:58.159Z,46.64
2018-04-28T13:02:58.159Z,46.64
2018-04-28T13:03:58.180Z,46.06
2018-04-28T13:04:58.179Z,45.68
2018-04-28T13:05:58.181Z,46.45
2018-04-28T13:06:58.205Z,47.31
2018-04-28T13:07:58.216Z,47.58
2018-04-28T13:08:58.216Z,47.19
2018-04-28T13:09:58.237Z,47.19
2018-04-28T13:10:58.228Z,47.65
2018-04-28T13:11:58.250Z,47.65
2018-04-28T13:12:58.273Z,47.46
2018-04-28T13:13:58.306Z,48.43
2018-04-28T13:14:58.279Z,48.23
2018-04-28T13:15:58.280Z,48.79
2018-04-28T13:16:58.280Z,47.72
2018-04-28T13:17:58.289Z,48.30
2018-04-28T13:18:58.295Z,48.49
2018-04-28T13:19:58.311Z,49.17
2018-04-28T13:20:58.312Z,49.46
2018-04-28T13:21:58.327Z,49.94
2018-04-28T13:22:58.357Z,49.84
2018-04-28T13:23:58.348Z,49.46
2018-04-28T13:24:58.342Z,49.84
2018-04-28T13:25:58.352Z,50.20
2018-04-28T13:26:58.436Z,50.78
2018-04-28T13:27:58.369Z,50.87
2018-04-28T13:28:58.444Z,50.20
2018-04-28T13:29:58.381Z,50.90
2018-04-28T13:30:58.384Z,49.91
2018-04-28T13:31:58.386Z,49.43
2018-04-28T13:32:58.402Z,49.63
2018-04-28T13:33:58.405Z,49.43